sensor_id;sensor_type;location;lat;lon;timestamp;P1;durP1;ratioP1;P2;durP2;ratioP2
39600;SDS011;25297;44.758;11.310;2023-04-01T00:00:29;29.35;;;19.40;;
39600;SDS011;25297;44.758;11.310;2023-04-01T00:02:55;32.90;;;19.05;;
39600;SDS011;25297;44.758;11.310;2023-04-01T00:05:21;35.08;;;20.48;;
39600;SDS011;25297;44.758;11.310;2023-04-01T00:07:49;32.97;;;20.85;;
39600;SDS011;25297;44.758;11.310;2023-04-01T00:10:15;31.75;;;19.65;;
39600;SDS011;25297;44.758;11.310;2023-04-01T00:12:42;33.63;;;21.27;;
39600;SDS011;25297;44.758;11.310;2023-04-01T00:15:09;32.50;;;20.00;;
39600;SDS011;25297;44.758;11.310;2023-04-01T00:17:36;36.13;;;21.52;;
39600;SDS011;25297;44.758;11.310;2023-04-01T00:20:03;35.42;;;20.83;;
39600;SDS011;25297;44.758;11.310;2023-04-01T00:22:30;34.85;;;20.58;;
39600;SDS011;25297;44.758;11.310;2023-04-01T00:24:55;33.90;;;21.80;;
39600;SDS011;25297;44.758;11.310;2023-04-01T00:27:21;39.40;;;23.60;;
39600;SDS011;25297;44.758;11.310;2023-04-01T00:29:46;36.75;;;23.80;;
39600;SDS011;25297;44.758;11.310;2023-04-01T00:32:15;31.10;;;20.92;;
39600;SDS011;25297;44.758;11.310;2023-04-01T00:34:40;40.20;;;21.58;;
39600;SDS011;25297;44.758;11.310;2023-04-01T00:37:06;33.40;;;22.58;;
39600;SDS011;25297;44.758;11.310;2023-04-01T00:39:33;38.55;;;22.45;;
39600;SDS011;25297;44.758;11.310;2023-04-01T00:42:00;34.08;;;22.20;;
39600;SDS011;25297;44.758;11.310;2023-04-01T00:44:28;37.97;;;21.55;;
39600;SDS011;25297;44.758;11.310;2023-04-01T00:46:58;33.75;;;21.70;;
39600;SDS011;25297;44.758;11.310;2023-04-01T00:49:27;33.78;;;22.17;;
39600;SDS011;25297;44.758;11.310;2023-04-01T00:51:58;34.78;;;21.65;;
39600;SDS011;25297;44.758;11.310;2023-04-01T00:54:26;42.50;;;22.83;;
39600;SDS011;25297;44.758;11.310;2023-04-01T00:56:58;40.65;;;24.52;;
39600;SDS011;25297;44.758;11.310;2023-04-01T00:59:35;38.60;;;22.45;;
39600;SDS011;25297;44.758;11.310;2023-04-01T01:04:33;39.75;;;22.80;;
39600;SDS011;25297;44.758;11.310;2023-04-01T01:07:12;41.85;;;22.30;;
39600;SDS011;25297;44.758;11.310;2023-04-01T01:10:02;35.92;;;21.70;;
39600;SDS011;25297;44.758;11.310;2023-04-01T01:18:31;32.25;;;21.55;;
39600;SDS011;25297;44.758;11.310;2023-04-01T01:27:19;35.00;;;21.75;;
39600;SDS011;25297;44.758;11.310;2023-04-01T01:35:14;41.33;;;24.70;;
39600;SDS011;25297;44.758;11.310;2023-04-01T01:37:44;39.80;;;25.27;;
39600;SDS011;25297;44.758;11.310;2023-04-01T01:40:12;40.42;;;24.23;;
39600;SDS011;25297;44.758;11.310;2023-04-01T01:42:40;40.08;;;24.83;;
39600;SDS011;25297;44.758;11.310;2023-04-01T01:45:11;40.75;;;24.55;;
39600;SDS011;25297;44.758;11.310;2023-04-01T01:47:39;38.80;;;25.00;;
39600;SDS011;25297;44.758;11.310;2023-04-01T01:50:06;45.05;;;25.92;;
39600;SDS011;25297;44.758;11.310;2023-04-01T01:52:34;36.85;;;24.88;;
39600;SDS011;25297;44.758;11.310;2023-04-01T01:55:00;44.15;;;25.25;;
39600;SDS011;25297;44.758;11.310;2023-04-01T01:57:26;35.08;;;24.73;;
39600;SDS011;25297;44.758;11.310;2023-04-01T01:59:59;39.40;;;26.52;;
39600;SDS011;25297;44.758;11.310;2023-04-01T02:02:37;37.00;;;24.55;;
39600;SDS011;25297;44.758;11.310;2023-04-01T02:05:05;37.88;;;24.42;;
39600;SDS011;25297;44.758;11.310;2023-04-01T02:07:35;35.08;;;23.38;;
39600;SDS011;25297;44.758;11.310;2023-04-01T02:10:04;38.67;;;24.73;;
39600;SDS011;25297;44.758;11.310;2023-04-01T02:12:31;34.78;;;23.63;;
39600;SDS011;25297;44.758;11.310;2023-04-01T02:17:29;39.08;;;24.45;;
39600;SDS011;25297;44.758;11.310;2023-04-01T02:19:57;39.35;;;24.00;;
39600;SDS011;25297;44.758;11.310;2023-04-01T02:22:31;41.20;;;24.40;;
39600;SDS011;25297;44.758;11.310;2023-04-01T02:25:01;37.97;;;24.20;;
39600;SDS011;25297;44.758;11.310;2023-04-01T02:27:31;35.38;;;22.63;;
39600;SDS011;25297;44.758;11.310;2023-04-01T02:29:57;36.30;;;23.38;;
39600;SDS011;25297;44.758;11.310;2023-04-01T02:32:23;37.33;;;25.48;;
39600;SDS011;25297;44.758;11.310;2023-04-01T02:34:50;43.75;;;23.42;;
39600;SDS011;25297;44.758;11.310;2023-04-01T02:37:16;37.75;;;24.25;;
39600;SDS011;25297;44.758;11.310;2023-04-01T02:39:42;42.53;;;24.98;;
39600;SDS011;25297;44.758;11.310;2023-04-01T02:42:08;46.60;;;26.40;;
39600;SDS011;25297;44.758;11.310;2023-04-01T02:44:34;55.75;;;27.42;;
39600;SDS011;25297;44.758;11.310;2023-04-01T02:47:00;39.67;;;24.40;;
39600;SDS011;25297;44.758;11.310;2023-04-01T02:49:26;36.22;;;24.02;;
39600;SDS011;25297;44.758;11.310;2023-04-01T02:51:52;41.97;;;24.40;;
39600;SDS011;25297;44.758;11.310;2023-04-01T02:54:18;43.90;;;24.52;;
39600;SDS011;25297;44.758;11.310;2023-04-01T02:56:44;38.85;;;24.77;;
39600;SDS011;25297;44.758;11.310;2023-04-01T02:59:10;41.83;;;26.75;;
39600;SDS011;25297;44.758;11.310;2023-04-01T03:01:36;38.97;;;26.95;;
39600;SDS011;25297;44.758;11.310;2023-04-01T03:04:02;41.45;;;26.95;;
39600;SDS011;25297;44.758;11.310;2023-04-01T03:06:29;50.10;;;27.63;;
39600;SDS011;25297;44.758;11.310;2023-04-01T03:08:55;45.45;;;28.38;;
39600;SDS011;25297;44.758;11.310;2023-04-01T03:11:21;41.85;;;26.38;;
39600;SDS011;25297;44.758;11.310;2023-04-01T03:13:47;46.85;;;27.40;;
39600;SDS011;25297;44.758;11.310;2023-04-01T03:16:13;41.97;;;26.50;;
39600;SDS011;25297;44.758;11.310;2023-04-01T03:18:39;47.97;;;27.58;;
39600;SDS011;25297;44.758;11.310;2023-04-01T03:21:12;37.50;;;27.20;;
39600;SDS011;25297;44.758;11.310;2023-04-01T03:23:41;44.70;;;27.70;;
39600;SDS011;25297;44.758;11.310;2023-04-01T03:26:07;44.17;;;28.48;;
39600;SDS011;25297;44.758;11.310;2023-04-01T03:28:33;38.47;;;26.52;;
39600;SDS011;25297;44.758;11.310;2023-04-01T03:30:58;41.38;;;27.02;;
39600;SDS011;25297;44.758;11.310;2023-04-01T03:33:24;39.42;;;26.40;;
39600;SDS011;25297;44.758;11.310;2023-04-01T03:35:50;37.33;;;26.15;;
39600;SDS011;25297;44.758;11.310;2023-04-01T03:38:17;37.75;;;24.83;;
39600;SDS011;25297;44.758;11.310;2023-04-01T03:40:43;44.33;;;26.13;;
39600;SDS011;25297;44.758;11.310;2023-04-01T03:43:09;39.15;;;25.25;;
39600;SDS011;25297;44.758;11.310;2023-04-01T03:45:36;40.85;;;25.88;;
39600;SDS011;25297;44.758;11.310;2023-04-01T03:48:08;40.38;;;25.08;;
39600;SDS011;25297;44.758;11.310;2023-04-01T03:50:34;40.33;;;24.48;;
39600;SDS011;25297;44.758;11.310;2023-04-01T03:53:00;43.17;;;26.90;;
39600;SDS011;25297;44.758;11.310;2023-04-01T03:55:26;41.72;;;26.38;;
39600;SDS011;25297;44.758;11.310;2023-04-01T03:57:51;40.55;;;27.23;;
39600;SDS011;25297;44.758;11.310;2023-04-01T04:00:17;38.70;;;25.90;;
39600;SDS011;25297;44.758;11.310;2023-04-01T04:02:43;41.70;;;26.13;;
39600;SDS011;25297;44.758;11.310;2023-04-01T04:05:09;42.20;;;26.65;;
39600;SDS011;25297;44.758;11.310;2023-04-01T04:07:35;39.13;;;26.63;;
39600;SDS011;25297;44.758;11.310;2023-04-01T04:10:01;40.40;;;26.30;;
39600;SDS011;25297;44.758;11.310;2023-04-01T04:12:27;39.22;;;26.67;;
39600;SDS011;25297;44.758;11.310;2023-04-01T04:14:52;43.63;;;27.20;;
39600;SDS011;25297;44.758;11.310;2023-04-01T04:17:18;43.20;;;28.27;;
39600;SDS011;25297;44.758;11.310;2023-04-01T04:19:43;46.45;;;28.35;;
39600;SDS011;25297;44.758;11.310;2023-04-01T04:22:09;43.00;;;28.70;;
39600;SDS011;25297;44.758;11.310;2023-04-01T04:24:35;42.83;;;29.55;;
39600;SDS011;25297;44.758;11.310;2023-04-01T04:27:01;44.35;;;28.67;;
39600;SDS011;25297;44.758;11.310;2023-04-01T04:29:27;43.28;;;28.85;;
39600;SDS011;25297;44.758;11.310;2023-04-01T04:31:53;41.78;;;27.33;;
39600;SDS011;25297;44.758;11.310;2023-04-01T04:34:18;38.40;;;27.13;;
39600;SDS011;25297;44.758;11.310;2023-04-01T04:36:44;39.50;;;26.35;;
39600;SDS011;25297;44.758;11.310;2023-04-01T04:39:10;42.25;;;29.00;;
39600;SDS011;25297;44.758;11.310;2023-04-01T04:41:38;45.10;;;28.52;;
39600;SDS011;25297;44.758;11.310;2023-04-01T04:44:04;40.85;;;28.00;;
39600;SDS011;25297;44.758;11.310;2023-04-01T04:46:30;40.05;;;27.58;;
39600;SDS011;25297;44.758;11.310;2023-04-01T04:48:56;40.65;;;27.08;;
39600;SDS011;25297;44.758;11.310;2023-04-01T04:51:21;49.33;;;29.70;;
39600;SDS011;25297;44.758;11.310;2023-04-01T04:53:47;42.53;;;28.08;;
39600;SDS011;25297;44.758;11.310;2023-04-01T04:56:17;41.22;;;27.60;;
39600;SDS011;25297;44.758;11.310;2023-04-01T04:58:45;38.35;;;25.88;;
39600;SDS011;25297;44.758;11.310;2023-04-01T05:01:12;41.38;;;27.67;;
39600;SDS011;25297;44.758;11.310;2023-04-01T05:03:39;47.90;;;28.52;;
39600;SDS011;25297;44.758;11.310;2023-04-01T05:06:05;45.42;;;30.55;;
39600;SDS011;25297;44.758;11.310;2023-04-01T05:08:32;42.42;;;27.92;;
39600;SDS011;25297;44.758;11.310;2023-04-01T05:10:59;42.58;;;29.10;;
39600;SDS011;25297;44.758;11.310;2023-04-01T05:13:25;40.78;;;28.30;;
39600;SDS011;25297;44.758;11.310;2023-04-01T05:15:51;44.08;;;28.35;;
39600;SDS011;25297;44.758;11.310;2023-04-01T05:18:16;40.67;;;27.85;;
39600;SDS011;25297;44.758;11.310;2023-04-01T05:20:46;48.45;;;29.95;;
39600;SDS011;25297;44.758;11.310;2023-04-01T05:23:16;41.17;;;28.38;;
39600;SDS011;25297;44.758;11.310;2023-04-01T05:25:42;44.03;;;28.38;;
39600;SDS011;25297;44.758;11.310;2023-04-01T05:28:10;57.03;;;27.58;;
39600;SDS011;25297;44.758;11.310;2023-04-01T05:30:36;38.08;;;28.23;;
39600;SDS011;25297;44.758;11.310;2023-04-01T05:33:01;38.78;;;27.23;;
39600;SDS011;25297;44.758;11.310;2023-04-01T05:35:27;40.65;;;27.20;;
39600;SDS011;25297;44.758;11.310;2023-04-01T05:37:53;39.22;;;25.30;;
39600;SDS011;25297;44.758;11.310;2023-04-01T05:40:19;46.65;;;27.05;;
39600;SDS011;25297;44.758;11.310;2023-04-01T05:42:45;34.67;;;24.90;;
39600;SDS011;25297;44.758;11.310;2023-04-01T05:45:11;42.92;;;26.90;;
39600;SDS011;25297;44.758;11.310;2023-04-01T05:47:36;39.75;;;27.20;;
39600;SDS011;25297;44.758;11.310;2023-04-01T05:50:02;37.20;;;24.33;;
39600;SDS011;25297;44.758;11.310;2023-04-01T05:52:28;38.78;;;25.92;;
39600;SDS011;25297;44.758;11.310;2023-04-01T05:54:53;37.67;;;26.23;;
39600;SDS011;25297;44.758;11.310;2023-04-01T05:57:19;48.05;;;25.17;;
39600;SDS011;25297;44.758;11.310;2023-04-01T05:59:44;44.35;;;26.55;;
39600;SDS011;25297;44.758;11.310;2023-04-01T06:02:10;39.70;;;27.13;;
39600;SDS011;25297;44.758;11.310;2023-04-01T06:04:38;39.17;;;26.40;;
39600;SDS011;25297;44.758;11.310;2023-04-01T06:07:13;46.00;;;27.17;;
39600;SDS011;25297;44.758;11.310;2023-04-01T06:09:40;39.00;;;25.92;;
39600;SDS011;25297;44.758;11.310;2023-04-01T06:12:12;36.00;;;24.83;;
39600;SDS011;25297;44.758;11.310;2023-04-01T06:20:46;38.78;;;26.30;;
39600;SDS011;25297;44.758;11.310;2023-04-01T06:23:24;40.90;;;25.60;;
39600;SDS011;25297;44.758;11.310;2023-04-01T06:26:17;43.95;;;27.75;;
39600;SDS011;25297;44.758;11.310;2023-04-01T06:29:00;42.33;;;26.80;;
39600;SDS011;25297;44.758;11.310;2023-04-01T06:46:04;34.70;;;25.40;;
39600;SDS011;25297;44.758;11.310;2023-04-01T06:54:44;35.78;;;22.95;;
39600;SDS011;25297;44.758;11.310;2023-04-01T06:57:25;32.38;;;23.05;;
39600;SDS011;25297;44.758;11.310;2023-04-01T07:00:11;38.73;;;23.43;;
39600;SDS011;25297;44.758;11.310;2023-04-01T07:02:54;32.03;;;22.65;;
39600;SDS011;25297;44.758;11.310;2023-04-01T07:05:44;31.77;;;23.27;;
39600;SDS011;25297;44.758;11.310;2023-04-01T07:08:11;30.15;;;20.95;;
39600;SDS011;25297;44.758;11.310;2023-04-01T07:13:30;30.58;;;20.67;;
39600;SDS011;25297;44.758;11.310;2023-04-01T07:22:23;33.15;;;20.65;;
39600;SDS011;25297;44.758;11.310;2023-04-01T07:24:37;28.13;;;19.80;;
39600;SDS011;25297;44.758;11.310;2023-04-01T07:27:12;27.90;;;18.35;;
39600;SDS011;25297;44.758;11.310;2023-04-01T07:29:38;28.67;;;19.60;;
39600;SDS011;25297;44.758;11.310;2023-04-01T07:37:18;29.20;;;19.13;;
39600;SDS011;25297;44.758;11.310;2023-04-01T08:01:02;46.40;;;16.45;;
39600;SDS011;25297;44.758;11.310;2023-04-01T08:06:32;22.52;;;13.45;;
39600;SDS011;25297;44.758;11.310;2023-04-01T08:25:36;13.52;;;8.13;;
39600;SDS011;25297;44.758;11.310;2023-04-01T08:28:16;11.32;;;7.50;;
39600;SDS011;25297;44.758;11.310;2023-04-01T08:33:15;11.18;;;8.07;;
39600;SDS011;25297;44.758;11.310;2023-04-01T08:39:02;9.23;;;6.47;;
39600;SDS011;25297;44.758;11.310;2023-04-01T08:55:51;10.27;;;6.20;;
39600;SDS011;25297;44.758;11.310;2023-04-01T09:04:22;10.80;;;5.97;;
39600;SDS011;25297;44.758;11.310;2023-04-01T09:07:29;11.23;;;6.20;;
39600;SDS011;25297;44.758;11.310;2023-04-01T09:10:18;10.18;;;6.28;;
39600;SDS011;25297;44.758;11.310;2023-04-01T09:15:53;12.45;;;6.75;;
39600;SDS011;25297;44.758;11.310;2023-04-01T09:26:49;7.63;;;5.50;;
39600;SDS011;25297;44.758;11.310;2023-04-01T09:38:12;9.95;;;6.70;;
39600;SDS011;25297;44.758;11.310;2023-04-01T09:40:58;10.90;;;6.03;;
39600;SDS011;25297;44.758;11.310;2023-04-01T09:51:43;10.13;;;5.25;;
39600;SDS011;25297;44.758;11.310;2023-04-01T10:00:31;12.57;;;5.38;;
39600;SDS011;25297;44.758;11.310;2023-04-01T10:18:28;3.67;;;2.53;;
39600;SDS011;25297;44.758;11.310;2023-04-01T10:21:19;6.18;;;3.22;;
39600;SDS011;25297;44.758;11.310;2023-04-01T10:32:29;4.07;;;1.90;;
39600;SDS011;25297;44.758;11.310;2023-04-01T10:48:48;6.03;;;1.83;;
39600;SDS011;25297;44.758;11.310;2023-04-01T10:54:36;2.65;;;2.00;;
39600;SDS011;25297;44.758;11.310;2023-04-01T10:57:44;3.28;;;1.42;;
39600;SDS011;25297;44.758;11.310;2023-04-01T11:00:46;2.42;;;1.60;;
39600;SDS011;25297;44.758;11.310;2023-04-01T11:37:12;1.85;;;1.45;;
39600;SDS011;25297;44.758;11.310;2023-04-01T11:51:08;5.40;;;1.17;;
39600;SDS011;25297;44.758;11.310;2023-04-01T11:57:05;3.55;;;1.80;;
39600;SDS011;25297;44.758;11.310;2023-04-01T12:11:05;6.60;;;1.80;;
39600;SDS011;25297;44.758;11.310;2023-04-01T12:13:48;4.93;;;2.13;;
39600;SDS011;25297;44.758;11.310;2023-04-01T12:35:55;4.13;;;2.33;;
39600;SDS011;25297;44.758;11.310;2023-04-01T12:38:43;4.88;;;2.05;;
39600;SDS011;25297;44.758;11.310;2023-04-01T12:41:29;5.57;;;2.22;;
39600;SDS011;25297;44.758;11.310;2023-04-01T12:44:14;4.00;;;1.73;;
39600;SDS011;25297;44.758;11.310;2023-04-01T12:52:36;5.10;;;2.30;;
39600;SDS011;25297;44.758;11.310;2023-04-01T13:00:42;4.10;;;3.05;;
39600;SDS011;25297;44.758;11.310;2023-04-01T13:09:02;4.63;;;3.35;;
39600;SDS011;25297;44.758;11.310;2023-04-01T13:17:07;7.18;;;3.30;;
39600;SDS011;25297;44.758;11.310;2023-04-01T13:31:02;4.40;;;2.47;;
39600;SDS011;25297;44.758;11.310;2023-04-01T13:33:38;5.85;;;2.80;;
39600;SDS011;25297;44.758;11.310;2023-04-01T13:36:36;4.07;;;2.55;;
39600;SDS011;25297;44.758;11.310;2023-04-01T13:47:17;5.43;;;3.45;;
39600;SDS011;25297;44.758;11.310;2023-04-01T13:49:51;3.00;;;2.70;;
39600;SDS011;25297;44.758;11.310;2023-04-01T13:52:42;3.53;;;2.35;;
39600;SDS011;25297;44.758;11.310;2023-04-01T13:55:39;4.77;;;2.60;;
39600;SDS011;25297;44.758;11.310;2023-04-01T13:58:17;4.43;;;2.30;;
39600;SDS011;25297;44.758;11.310;2023-04-01T14:00:54;4.18;;;2.45;;
39600;SDS011;25297;44.758;11.310;2023-04-01T14:08:42;2.38;;;1.77;;
39600;SDS011;25297;44.758;11.310;2023-04-01T14:11:28;4.38;;;1.13;;
39600;SDS011;25297;44.758;11.310;2023-04-01T14:19:41;4.43;;;1.50;;
39600;SDS011;25297;44.758;11.310;2023-04-01T14:33:04;1.73;;;1.30;;
39600;SDS011;25297;44.758;11.310;2023-04-01T14:36:19;4.82;;;0.70;;
39600;SDS011;25297;44.758;11.310;2023-04-01T14:41:48;3.85;;;0.93;;
39600;SDS011;25297;44.758;11.310;2023-04-01T14:44:54;6.45;;;1.17;;
39600;SDS011;25297;44.758;11.310;2023-04-01T14:47:28;5.22;;;1.05;;
39600;SDS011;25297;44.758;11.310;2023-04-01T14:50:06;1.15;;;0.80;;
39600;SDS011;25297;44.758;11.310;2023-04-01T14:55:27;2.72;;;0.73;;
39600;SDS011;25297;44.758;11.310;2023-04-01T14:58:07;1.77;;;0.57;;
39600;SDS011;25297;44.758;11.310;2023-04-01T15:03:32;1.00;;;0.50;;
39600;SDS011;25297;44.758;11.310;2023-04-01T15:09:13;10.43;;;0.55;;
39600;SDS011;25297;44.758;11.310;2023-04-01T15:12:17;7.03;;;1.08;;
39600;SDS011;25297;44.758;11.310;2023-04-01T15:17:44;1.02;;;0.50;;
39600;SDS011;25297;44.758;11.310;2023-04-01T15:20:47;0.20;;;0.20;;
39600;SDS011;25297;44.758;11.310;2023-04-01T15:23:37;0.52;;;0.25;;
39600;SDS011;25297;44.758;11.310;2023-04-01T15:26:11;0.60;;;0.30;;
39600;SDS011;25297;44.758;11.310;2023-04-01T15:29:13;1.02;;;0.20;;
39600;SDS011;25297;44.758;11.310;2023-04-01T15:31:49;0.73;;;0.30;;
39600;SDS011;25297;44.758;11.310;2023-04-01T15:39:24;1.40;;;0.47;;
39600;SDS011;25297;44.758;11.310;2023-04-01T15:52:49;12.90;;;0.67;;
39600;SDS011;25297;44.758;11.310;2023-04-01T15:55:27;24.02;;;2.25;;
39600;SDS011;25297;44.758;11.310;2023-04-01T16:00:28;0.80;;;0.30;;
39600;SDS011;25297;44.758;11.310;2023-04-01T16:06:01;0.93;;;0.35;;
39600;SDS011;25297;44.758;11.310;2023-04-01T16:09:01;9.20;;;0.90;;
39600;SDS011;25297;44.758;11.310;2023-04-01T16:20:02;2.33;;;0.40;;
39600;SDS011;25297;44.758;11.310;2023-04-01T16:22:49;0.50;;;0.17;;
39600;SDS011;25297;44.758;11.310;2023-04-01T16:25:25;0.47;;;0.20;;
39600;SDS011;25297;44.758;11.310;2023-04-01T16:31:08;0.10;;;0.10;;
39600;SDS011;25297;44.758;11.310;2023-04-01T16:34:03;0.35;;;0.17;;
39600;SDS011;25297;44.758;11.310;2023-04-01T16:36:42;0.90;;;0.28;;
39600;SDS011;25297;44.758;11.310;2023-04-01T16:39:28;1.58;;;0.30;;
39600;SDS011;25297;44.758;11.310;2023-04-01T16:55:43;3.97;;;0.45;;
39600;SDS011;25297;44.758;11.310;2023-04-01T16:58:18;1.27;;;0.47;;
39600;SDS011;25297;44.758;11.310;2023-04-01T17:01:00;1.85;;;0.90;;
39600;SDS011;25297;44.758;11.310;2023-04-01T17:03:30;1.52;;;0.63;;
39600;SDS011;25297;44.758;11.310;2023-04-01T17:06:19;4.10;;;0.90;;
39600;SDS011;25297;44.758;11.310;2023-04-01T17:11:49;1.60;;;0.60;;
39600;SDS011;25297;44.758;11.310;2023-04-01T17:17:39;5.05;;;1.00;;
39600;SDS011;25297;44.758;11.310;2023-04-01T17:20:19;4.72;;;0.77;;
39600;SDS011;25297;44.758;11.310;2023-04-01T17:26:12;2.08;;;0.93;;
39600;SDS011;25297;44.758;11.310;2023-04-01T17:28:58;2.65;;;0.50;;
39600;SDS011;25297;44.758;11.310;2023-04-01T17:39:57;2.95;;;0.90;;
39600;SDS011;25297;44.758;11.310;2023-04-01T17:42:47;3.83;;;1.35;;
39600;SDS011;25297;44.758;11.310;2023-04-01T17:45:53;3.72;;;1.33;;
39600;SDS011;25297;44.758;11.310;2023-04-01T17:51:07;5.68;;;2.00;;
39600;SDS011;25297;44.758;11.310;2023-04-01T17:59:32;3.90;;;1.77;;
39600;SDS011;25297;44.758;11.310;2023-04-01T18:04:36;4.47;;;1.30;;
39600;SDS011;25297;44.758;11.310;2023-04-01T18:07:31;4.53;;;1.40;;
39600;SDS011;25297;44.758;11.310;2023-04-01T18:15:46;7.10;;;2.53;;
39600;SDS011;25297;44.758;11.310;2023-04-01T18:18:35;3.15;;;1.70;;
39600;SDS011;25297;44.758;11.310;2023-04-01T18:27:02;4.00;;;1.02;;
39600;SDS011;25297;44.758;11.310;2023-04-01T18:32:23;3.55;;;1.40;;
39600;SDS011;25297;44.758;11.310;2023-04-01T18:38:12;3.45;;;1.40;;
39600;SDS011;25297;44.758;11.310;2023-04-01T18:40:46;3.53;;;1.20;;
39600;SDS011;25297;44.758;11.310;2023-04-01T18:52:13;4.70;;;1.58;;
39600;SDS011;25297;44.758;11.310;2023-04-01T18:57:52;5.45;;;1.20;;
39600;SDS011;25297;44.758;11.310;2023-04-01T19:03:07;3.17;;;1.20;;
39600;SDS011;25297;44.758;11.310;2023-04-01T19:05:58;2.90;;;1.30;;
39600;SDS011;25297;44.758;11.310;2023-04-01T19:08:38;3.70;;;1.13;;
39600;SDS011;25297;44.758;11.310;2023-04-01T19:11:23;2.53;;;0.85;;
39600;SDS011;25297;44.758;11.310;2023-04-01T19:17:04;3.33;;;1.10;;
39600;SDS011;25297;44.758;11.310;2023-04-01T19:22:54;2.92;;;1.00;;
39600;SDS011;25297;44.758;11.310;2023-04-01T19:25:45;4.55;;;0.95;;
39600;SDS011;25297;44.758;11.310;2023-04-01T19:40:51;3.47;;;1.23;;
39600;SDS011;25297;44.758;11.310;2023-04-01T19:48:55;3.58;;;1.10;;
39600;SDS011;25297;44.758;11.310;2023-04-01T19:54:04;1.23;;;0.73;;
39600;SDS011;25297;44.758;11.310;2023-04-01T19:59:50;3.25;;;1.40;;
39600;SDS011;25297;44.758;11.310;2023-04-01T20:02:35;1.98;;;0.95;;
39600;SDS011;25297;44.758;11.310;2023-04-01T20:05:24;1.85;;;1.17;;
39600;SDS011;25297;44.758;11.310;2023-04-01T20:11:18;5.57;;;1.40;;
39600;SDS011;25297;44.758;11.310;2023-04-01T20:14:04;3.28;;;1.23;;
39600;SDS011;25297;44.758;11.310;2023-04-01T20:19:21;2.55;;;1.27;;
39600;SDS011;25297;44.758;11.310;2023-04-01T20:21:52;3.63;;;1.55;;
39600;SDS011;25297;44.758;11.310;2023-04-01T20:27:10;3.47;;;1.20;;
39600;SDS011;25297;44.758;11.310;2023-04-01T20:41:10;8.80;;;1.42;;
39600;SDS011;25297;44.758;11.310;2023-04-01T20:46:24;5.55;;;1.30;;
39600;SDS011;25297;44.758;11.310;2023-04-01T20:51:43;5.10;;;1.05;;
39600;SDS011;25297;44.758;11.310;2023-04-01T20:54:33;3.22;;;0.95;;
39600;SDS011;25297;44.758;11.310;2023-04-01T20:57:27;6.03;;;1.40;;
39600;SDS011;25297;44.758;11.310;2023-04-01T21:00:32;4.05;;;1.17;;
39600;SDS011;25297;44.758;11.310;2023-04-01T21:03:29;5.50;;;1.20;;
39600;SDS011;25297;44.758;11.310;2023-04-01T21:06:17;5.57;;;1.40;;
39600;SDS011;25297;44.758;11.310;2023-04-01T21:09:00;8.45;;;1.70;;
39600;SDS011;25297;44.758;11.310;2023-04-01T21:22:24;4.13;;;1.57;;
39600;SDS011;25297;44.758;11.310;2023-04-01T21:33:35;7.30;;;1.70;;
39600;SDS011;25297;44.758;11.310;2023-04-01T21:36:08;8.25;;;1.98;;
39600;SDS011;25297;44.758;11.310;2023-04-01T21:41:56;7.28;;;1.88;;
39600;SDS011;25297;44.758;11.310;2023-04-01T21:49:43;6.95;;;1.70;;
39600;SDS011;25297;44.758;11.310;2023-04-01T22:16:48;8.35;;;2.10;;
39600;SDS011;25297;44.758;11.310;2023-04-01T22:25:17;6.60;;;1.60;;
39600;SDS011;25297;44.758;11.310;2023-04-01T22:27:52;10.05;;;2.10;;
39600;SDS011;25297;44.758;11.310;2023-04-01T22:30:27;5.88;;;2.00;;
39600;SDS011;25297;44.758;11.310;2023-04-01T22:33:06;6.75;;;2.00;;
39600;SDS011;25297;44.758;11.310;2023-04-01T22:44:17;10.55;;;2.22;;
39600;SDS011;25297;44.758;11.310;2023-04-01T22:49:46;9.75;;;2.33;;
39600;SDS011;25297;44.758;11.310;2023-04-01T22:52:35;10.50;;;2.25;;
39600;SDS011;25297;44.758;11.310;2023-04-01T22:55:25;7.00;;;1.60;;
39600;SDS011;25297;44.758;11.310;2023-04-01T22:57:59;7.18;;;1.83;;
39600;SDS011;25297;44.758;11.310;2023-04-01T23:05:46;10.15;;;1.70;;
39600;SDS011;25297;44.758;11.310;2023-04-01T23:20:12;27.50;;;2.75;;
39600;SDS011;25297;44.758;11.310;2023-04-01T23:35:59;10.60;;;2.35;;
39600;SDS011;25297;44.758;11.310;2023-04-01T23:38:31;8.52;;;1.92;;
39600;SDS011;25297;44.758;11.310;2023-04-01T23:40:59;12.93;;;2.58;;
39600;SDS011;25297;44.758;11.310;2023-04-01T23:43:27;5.97;;;1.73;;
39600;SDS011;25297;44.758;11.310;2023-04-01T23:46:00;7.95;;;1.80;;
39600;SDS011;25297;44.758;11.310;2023-04-01T23:48:32;6.28;;;1.80;;
39600;SDS011;25297;44.758;11.310;2023-04-01T23:51:01;13.77;;;2.10;;
39600;SDS011;25297;44.758;11.310;2023-04-01T23:53:32;6.65;;;2.25;;
39600;SDS011;25297;44.758;11.310;2023-04-01T23:58:48;9.13;;;1.73;;
